createdAt,value
2023-05-19T00:00:31.468Z,98679.75
2023-05-19T00:01:55.892Z,98683.87
2023-05-19T00:03:04.054Z,98682.62
2023-05-19T00:04:11.125Z,98681.13
2023-05-19T00:05:19.136Z,98679.63
2023-05-19T00:06:32.352Z,98681.54
2023-05-19T00:07:39.495Z,98679.82
2023-05-19T00:08:45.743Z,98683.24
2023-05-19T00:09:51.939Z,98684.52
2023-05-19T00:10:58.883Z,98683.23
2023-05-19T00:12:04.364Z,98680.73
2023-05-19T00:13:10.610Z,98680.68
2023-05-19T00:14:17.529Z,98683.21
2023-05-19T00:15:23.273Z,98684.19
2023-05-19T00:16:31.000Z,98684.44
2023-05-19T00:17:38.799Z,98686.82
2023-05-19T00:18:44.196Z,98686.10
2023-05-19T00:19:51.080Z,98685.88
2023-05-19T00:20:57.226Z,98683.04
2023-05-19T00:22:03.833Z,98680.42
2023-05-19T00:23:10.053Z,98683.85
2023-05-19T00:24:16.620Z,98684.58
2023-05-19T00:25:22.913Z,98682.30
2023-05-19T00:26:28.665Z,98683.72
2023-05-19T00:27:40.180Z,98682.94
2023-05-19T00:28:46.806Z,98680.35
2023-05-19T00:29:52.560Z,98680.66
2023-05-19T00:30:59.055Z,98680.20
2023-05-19T00:32:05.596Z,98682.07
2023-05-19T00:33:11.300Z,98680.23
2023-05-19T00:34:17.613Z,98682.13
2023-05-19T00:35:24.585Z,98678.96
2023-05-19T00:36:30.701Z,98678.35
2023-05-19T00:37:36.986Z,98678.23
2023-05-19T00:38:42.396Z,98679.16
2023-05-19T00:39:48.139Z,98679.03
2023-05-19T00:40:53.721Z,98676.33
2023-05-19T00:41:59.500Z,98679.50
2023-05-19T00:43:06.236Z,98682.52
2023-05-19T00:44:12.086Z,98685.66
2023-05-19T00:45:17.893Z,98690.31
2023-05-19T00:46:23.766Z,98692.85
2023-05-19T00:47:29.747Z,98691.35
2023-05-19T00:48:36.063Z,98693.34
2023-05-19T00:49:41.810Z,98697.49
2023-05-19T00:50:47.806Z,98697.34
2023-05-19T00:51:53.682Z,98696.06
2023-05-19T00:52:59.825Z,98695.27
2023-05-19T00:54:06.039Z,98694.66
2023-05-19T00:55:12.300Z,98693.67
2023-05-19T00:56:18.667Z,98693.64
2023-05-19T00:57:24.909Z,98693.58
2023-05-19T00:58:31.659Z,98696.13
2023-05-19T00:59:37.681Z,98693.91
2023-05-19T01:00:43.876Z,98693.13
2023-05-19T01:01:49.991Z,98695.11
2023-05-19T01:02:56.988Z,98695.30
2023-05-19T01:04:04.850Z,98695.14
2023-05-19T01:05:12.369Z,98692.92
2023-05-19T01:06:19.954Z,98696.11
2023-05-19T01:07:28.196Z,98694.08
2023-05-19T01:08:38.005Z,98696.84
2023-05-19T01:09:43.518Z,98692.86
2023-05-19T01:10:49.797Z,98696.60
2023-05-19T01:11:55.946Z,98696.77
2023-05-19T01:13:03.331Z,98700.02
2023-05-19T01:14:10.518Z,98698.07
2023-05-19T01:15:17.521Z,98696.58
2023-05-19T01:16:31.242Z,98702.38
2023-05-19T01:17:46.985Z,98701.98
2023-05-19T01:19:05.618Z,98702.52
2023-05-19T01:20:35.800Z,98703.87
2023-05-19T01:22:08.023Z,98702.56
2023-05-19T01:23:51.647Z,98702.02
2023-05-19T01:25:29.676Z,98700.57
2023-05-19T01:27:15.663Z,98700.64
2023-05-19T01:28:38.182Z,98701.36
2023-05-19T01:30:14.253Z,98702.57
2023-05-19T01:31:24.236Z,98706.05
2023-05-19T01:32:32.958Z,98706.38
2023-05-19T01:33:41.692Z,98705.36
2023-05-19T01:34:47.659Z,98710.70
2023-05-19T01:35:53.377Z,98708.27
2023-05-19T01:36:59.648Z,98708.27
2023-05-19T01:38:06.362Z,98709.79
2023-05-19T01:39:12.741Z,98709.27
2023-05-19T01:40:19.251Z,98708.42
2023-05-19T01:41:25.572Z,98705.82
2023-05-19T01:42:37.713Z,98704.97
2023-05-19T01:43:44.365Z,98703.56
2023-05-19T01:44:50.772Z,98700.23
2023-05-19T01:45:59.834Z,98701.35
2023-05-19T01:47:06.875Z,98704.70
2023-05-19T01:48:13.739Z,98705.58
2023-05-19T01:49:20.100Z,98707.80
2023-05-19T01:50:25.902Z,98708.55
2023-05-19T01:51:32.587Z,98712.77
2023-05-19T01:52:38.808Z,98716.24
2023-05-19T01:53:46.856Z,98720.44
2023-05-19T01:54:52.713Z,98719.66
2023-05-19T01:55:58.829Z,98723.86
2023-05-19T01:57:16.799Z,98729.23
2023-05-19T01:58:30.256Z,98732.98
2023-05-19T02:00:06.450Z,98733.15
2023-05-19T02:01:49.197Z,98729.95
2023-05-19T02:03:28.255Z,98735.00
2023-05-19T02:04:46.844Z,98735.39
2023-05-19T02:06:00.706Z,98735.88
2023-05-19T02:07:18.740Z,98733.73
2023-05-19T02:08:40.134Z,98738.68
2023-05-19T02:10:16.022Z,98738.91
2023-05-19T02:11:28.346Z,98739.63
2023-05-19T02:12:38.290Z,98739.48
2023-05-19T02:13:45.415Z,98740.36
2023-05-19T02:15:13.202Z,98743.57
2023-05-19T02:16:19.934Z,98744.29
2023-05-19T02:17:26.753Z,98744.60
2023-05-19T02:18:34.138Z,98750.95
2023-05-19T02:19:43.573Z,98749.79
2023-05-19T02:20:49.234Z,98749.95
2023-05-19T02:21:55.013Z,98747.99
2023-05-19T02:23:00.968Z,98749.52
2023-05-19T02:24:07.532Z,98750.89
2023-05-19T02:25:13.910Z,98753.43
2023-05-19T02:26:20.137Z,98753.05
2023-05-19T02:27:27.030Z,98754.25
2023-05-19T02:28:32.846Z,98754.56
2023-05-19T02:29:38.761Z,98755.77
2023-05-19T02:30:47.501Z,98754.11
2023-05-19T02:31:53.301Z,98758.09
2023-05-19T02:32:58.948Z,98758.80
2023-05-19T02:34:05.227Z,98759.91
2023-05-19T02:35:11.914Z,98767.46
2023-05-19T02:36:18.859Z,98770.00
2023-05-19T02:37:25.321Z,98773.27
2023-05-19T02:38:31.890Z,98775.96
2023-05-19T02:39:37.957Z,98778.67
2023-05-19T02:40:43.686Z,98782.27
2023-05-19T02:41:50.571Z,98780.38
2023-05-19T02:42:56.970Z,98782.09
2023-05-19T02:44:03.127Z,98780.59
2023-05-19T02:45:09.777Z,98781.25
2023-05-19T02:46:15.193Z,98786.95
2023-05-19T02:47:21.199Z,98784.52
2023-05-19T02:48:27.117Z,98783.95
2023-05-19T02:49:36.331Z,98788.54
2023-05-19T02:50:41.996Z,98786.88
2023-05-19T02:51:47.282Z,98787.04
2023-05-19T02:52:54.913Z,98791.23
2023-05-19T02:54:00.532Z,98791.40
2023-05-19T02:55:07.289Z,98793.95
2023-05-19T02:56:13.802Z,98793.89
2023-05-19T02:57:19.878Z,98793.59
2023-05-19T02:58:26.401Z,98796.98
2023-05-19T02:59:32.950Z,98797.46
2023-05-19T03:00:38.996Z,98798.12
2023-05-19T03:01:44.618Z,98799.13
2023-05-19T03:02:53.582Z,98798.66
2023-05-19T03:04:00.538Z,98797.73
2023-05-19T03:05:08.567Z,98799.55
2023-05-19T03:06:14.773Z,98802.25
2023-05-19T03:07:25.714Z,98800.98
2023-05-19T03:08:32.010Z,98800.36
2023-05-19T03:09:40.903Z,98800.14
2023-05-19T03:10:48.478Z,98805.11
2023-05-19T03:11:54.747Z,98807.27
2023-05-19T03:13:01.251Z,98806.48
2023-05-19T03:14:10.305Z,98809.85
2023-05-19T03:15:17.086Z,98807.95
2023-05-19T03:16:23.437Z,98808.02
2023-05-19T03:17:34.242Z,98814.98
2023-05-19T03:18:40.376Z,98812.93
2023-05-19T03:19:47.185Z,98815.41
2023-05-19T03:20:54.878Z,98819.05
2023-05-19T03:22:01.161Z,98820.00
2023-05-19T03:23:07.521Z,98817.65
2023-05-19T03:24:15.375Z,98816.07
2023-05-19T03:25:21.173Z,98814.50
2023-05-19T03:26:28.024Z,98814.05
2023-05-19T03:27:35.843Z,98813.48
2023-05-19T03:28:41.677Z,98814.63
2023-05-19T03:29:47.511Z,98814.30
2023-05-19T03:30:52.909Z,98814.62
2023-05-19T03:32:06.382Z,98820.83
2023-05-19T03:33:12.911Z,98822.64
2023-05-19T03:34:19.293Z,98826.59
2023-05-19T03:35:25.450Z,98829.91
2023-05-19T03:36:40.137Z,98829.45
2023-05-19T03:37:51.058Z,98829.06
2023-05-19T03:38:57.304Z,98829.45
2023-05-19T03:40:03.406Z,98831.60
2023-05-19T03:41:09.273Z,98833.41
2023-05-19T03:42:17.642Z,98833.48
2023-05-19T03:43:23.447Z,98835.41
2023-05-19T03:44:33.629Z,98839.29
2023-05-19T03:45:39.177Z,98841.11
2023-05-19T03:47:00.906Z,98838.52
2023-05-19T03:48:27.869Z,98841.90
2023-05-19T03:49:54.056Z,98842.91
2023-05-19T03:51:20.131Z,98844.96
2023-05-19T03:52:27.055Z,98842.19
2023-05-19T03:53:43.078Z,98844.51
2023-05-19T03:54:48.886Z,98845.86
2023-05-19T03:55:56.200Z,98848.86
2023-05-19T03:57:02.670Z,98851.13
2023-05-19T03:58:08.965Z,98849.95
2023-05-19T03:59:20.025Z,98851.53
2023-05-19T04:00:25.896Z,98853.29
2023-05-19T04:01:32.627Z,98867.31
2023-05-19T04:02:38.920Z,98871.25
2023-05-19T04:03:46.725Z,98873.48
2023-05-19T04:04:52.964Z,98873.89
2023-05-19T04:05:58.895Z,98876.27
2023-05-19T04:07:04.996Z,98875.98
2023-05-19T04:08:11.377Z,98881.13
2023-05-19T04:09:17.292Z,98880.58
2023-05-19T04:10:23.942Z,98877.90
2023-05-19T04:11:30.499Z,98879.60
2023-05-19T04:12:36.899Z,98879.27
2023-05-19T04:13:42.396Z,98878.64
2023-05-19T04:14:48.301Z,98879.20
2023-05-19T04:15:54.042Z,98876.38
2023-05-19T04:17:00.936Z,98879.64
2023-05-19T04:18:09.933Z,98879.86
2023-05-19T04:19:19.077Z,98879.25
2023-05-19T04:20:24.553Z,98883.27
2023-05-19T04:21:29.856Z,98885.98
2023-05-19T04:22:35.253Z,98889.08
2023-05-19T04:23:40.756Z,98889.63
2023-05-19T04:24:46.998Z,98888.63
2023-05-19T04:25:55.173Z,98889.11
2023-05-19T04:27:03.637Z,98889.34
2023-05-19T04:28:10.190Z,98889.17
2023-05-19T04:29:18.809Z,98892.77
2023-05-19T04:30:25.714Z,98891.10
2023-05-19T04:31:31.742Z,98895.46
2023-05-19T04:32:38.022Z,98892.60
2023-05-19T04:33:44.424Z,98892.21
2023-05-19T04:34:50.580Z,98894.45
2023-05-19T04:36:00.272Z,98892.24
2023-05-19T04:37:07.499Z,98895.02
2023-05-19T04:38:13.545Z,98894.16
2023-05-19T04:39:19.264Z,98894.40
2023-05-19T04:40:25.632Z,98897.66
2023-05-19T04:41:31.969Z,98895.83
2023-05-19T04:42:37.995Z,98895.92
2023-05-19T04:43:45.168Z,98896.80
2023-05-19T04:44:52.507Z,98898.40
2023-05-19T04:45:59.017Z,98895.08
2023-05-19T04:47:06.830Z,98895.14
2023-05-19T04:48:14.652Z,98895.63
2023-05-19T04:49:20.365Z,98898.33
2023-05-19T04:50:26.294Z,98899.23
2023-05-19T04:51:33.143Z,98903.31
2023-05-19T04:52:39.066Z,98903.09
2023-05-19T04:53:44.683Z,98905.17
2023-05-19T04:54:51.591Z,98905.63
2023-05-19T04:55:58.772Z,98903.96
2023-05-19T04:57:05.059Z,98904.85
2023-05-19T04:58:12.457Z,98903.41
2023-05-19T04:59:18.592Z,98904.14
2023-05-19T05:00:25.891Z,98906.38
2023-05-19T05:01:41.206Z,98905.83
2023-05-19T05:02:46.998Z,98907.11
2023-05-19T05:03:59.789Z,98905.84
2023-05-19T05:05:06.313Z,98907.48
2023-05-19T05:06:12.457Z,98907.09
2023-05-19T05:07:21.306Z,98906.05
2023-05-19T05:08:31.093Z,98907.04
2023-05-19T05:09:37.635Z,98908.96
2023-05-19T05:10:44.370Z,98904.69
2023-05-19T05:11:50.049Z,98904.75
2023-05-19T05:12:57.600Z,98905.70
2023-05-19T05:14:03.755Z,98903.66
2023-05-19T05:15:10.264Z,98901.07
2023-05-19T05:16:16.830Z,98903.21
2023-05-19T05:17:22.703Z,98901.55
2023-05-19T05:18:28.972Z,98903.32
2023-05-19T05:19:35.988Z,98901.10
2023-05-19T05:20:44.007Z,98902.48
2023-05-19T05:21:52.065Z,98902.57
2023-05-19T05:22:59.314Z,98903.28
2023-05-19T05:24:06.724Z,98903.77
2023-05-19T05:25:15.132Z,98905.50
2023-05-19T05:26:24.115Z,98905.44
2023-05-19T05:27:32.097Z,98906.71
2023-05-19T05:28:37.824Z,98903.77
2023-05-19T05:29:44.405Z,98904.83
2023-05-19T05:30:51.247Z,98904.59
2023-05-19T05:31:57.244Z,98907.62
2023-05-19T05:33:03.918Z,98905.34
2023-05-19T05:34:12.446Z,98903.67
2023-05-19T05:35:18.035Z,98909.09
2023-05-19T05:36:23.994Z,98905.70
2023-05-19T05:37:31.773Z,98908.02
2023-05-19T05:38:37.981Z,98908.77
2023-05-19T05:39:44.213Z,98904.36
2023-05-19T05:40:49.641Z,98904.40
2023-05-19T05:41:55.504Z,98906.28
2023-05-19T05:43:01.819Z,98907.35
2023-05-19T05:44:10.265Z,98907.89
2023-05-19T05:45:17.670Z,98907.64
2023-05-19T05:46:24.385Z,98907.23
2023-05-19T05:47:31.501Z,98912.45
2023-05-19T05:48:38.080Z,98913.23
2023-05-19T05:49:44.607Z,98917.67
2023-05-19T05:50:51.612Z,98913.52
2023-05-19T05:52:05.624Z,98914.17
2023-05-19T05:53:20.765Z,98916.29
2023-05-19T05:54:29.548Z,98920.17
2023-05-19T05:55:35.683Z,98918.45
2023-05-19T05:56:42.538Z,98918.05
2023-05-19T05:57:52.286Z,98920.14
2023-05-19T05:58:59.495Z,98919.67
2023-05-19T06:00:09.103Z,98923.42
2023-05-19T06:01:21.904Z,98922.31
2023-05-19T06:02:28.894Z,98925.20
2023-05-19T06:03:38.676Z,98928.23
2023-05-19T06:04:45.389Z,98927.66
2023-05-19T06:05:51.835Z,98924.38
2023-05-19T06:07:01.905Z,98928.27
2023-05-19T06:08:12.274Z,98927.75
2023-05-19T06:09:17.930Z,98923.34
2023-05-19T06:10:25.123Z,98922.10
2023-05-19T06:11:31.936Z,98923.63
2023-05-19T06:12:41.492Z,98925.77
2023-05-19T06:13:47.931Z,98923.83
2023-05-19T06:15:01.354Z,98925.13
2023-05-19T06:16:26.771Z,98926.52
2023-05-19T06:17:35.155Z,98927.56
2023-05-19T06:18:41.208Z,98930.83
2023-05-19T06:19:47.288Z,98929.64
2023-05-19T06:20:53.383Z,98932.86
2023-05-19T06:22:01.044Z,98934.45
2023-05-19T06:23:08.214Z,98936.98
2023-05-19T06:24:14.179Z,98932.93
2023-05-19T06:25:21.226Z,98935.33
2023-05-19T06:26:28.014Z,98934.27
2023-05-19T06:27:34.856Z,98933.48
2023-05-19T06:28:41.475Z,98932.38
2023-05-19T06:29:47.404Z,98934.19
2023-05-19T06:30:53.688Z,98934.33
2023-05-19T06:32:05.065Z,98933.67
2023-05-19T06:33:11.573Z,98935.16
2023-05-19T06:34:18.339Z,98935.95
2023-05-19T06:35:26.143Z,98936.23
2023-05-19T06:36:33.102Z,98939.33
2023-05-19T06:37:38.899Z,98943.55
2023-05-19T06:38:45.058Z,98946.56
2023-05-19T06:39:53.070Z,98949.63
2023-05-19T06:40:58.732Z,98952.98
2023-05-19T06:42:05.052Z,98959.05
2023-05-19T06:43:31.285Z,98960.95
2023-05-19T06:44:41.133Z,98963.43
2023-05-19T06:45:49.287Z,98963.56
2023-05-19T06:46:54.741Z,98960.29
2023-05-19T06:48:00.778Z,98961.91
2023-05-19T06:49:07.593Z,98963.54
2023-05-19T06:50:16.876Z,98963.25
2023-05-19T06:51:23.152Z,98960.41
2023-05-19T06:52:33.065Z,98959.59
2023-05-19T06:53:38.996Z,98961.45
2023-05-19T06:54:46.759Z,98959.35
2023-05-19T06:55:59.392Z,98956.92
2023-05-19T06:57:09.792Z,98951.98
2023-05-19T06:58:16.443Z,98952.73
2023-05-19T06:59:23.752Z,98954.44
2023-05-19T07:00:30.437Z,98954.45
2023-05-19T07:01:36.401Z,98953.88
2023-05-19T07:02:42.389Z,98953.48
2023-05-19T07:03:48.321Z,98956.85
2023-05-19T07:04:54.600Z,98952.10
2023-05-19T07:06:01.341Z,98948.78
2023-05-19T07:07:07.980Z,98948.58
2023-05-19T07:08:14.319Z,98949.23
2023-05-19T07:09:21.224Z,98950.45
2023-05-19T07:10:27.958Z,98949.02
2023-05-19T07:11:34.988Z,98948.13
2023-05-19T07:12:41.629Z,98945.66
2023-05-19T07:13:48.190Z,98947.10
2023-05-19T07:14:57.858Z,98949.29
2023-05-19T07:16:04.430Z,98946.30
2023-05-19T07:17:11.089Z,98948.14
2023-05-19T07:18:20.642Z,98945.06
2023-05-19T07:19:27.421Z,98947.23
2023-05-19T07:20:33.659Z,98946.75
2023-05-19T07:21:39.381Z,98944.39
2023-05-19T07:22:45.702Z,98943.00
2023-05-19T07:23:52.255Z,98942.32
2023-05-19T07:25:02.116Z,98942.42
2023-05-19T07:26:08.912Z,98941.16
2023-05-19T07:27:15.771Z,98940.16
2023-05-19T07:28:21.175Z,98938.82
2023-05-19T07:29:27.466Z,98939.23
2023-05-19T07:30:34.167Z,98939.81
2023-05-19T07:31:40.308Z,98938.32
2023-05-19T07:32:46.694Z,98942.63
2023-05-19T07:33:54.499Z,98941.70
2023-05-19T07:35:01.441Z,98944.98
2023-05-19T07:36:08.230Z,98946.73
2023-05-19T07:37:15.153Z,98946.73
2023-05-19T07:38:21.386Z,98945.16
2023-05-19T07:39:30.512Z,98943.98
2023-05-19T07:40:36.231Z,98943.20
2023-05-19T07:41:42.135Z,98938.13
2023-05-19T07:42:49.526Z,98936.73
2023-05-19T07:43:55.479Z,98930.63
2023-05-19T07:45:01.783Z,98930.79
2023-05-19T07:46:07.385Z,98926.73
2023-05-19T07:47:13.227Z,98923.64
2023-05-19T07:48:19.495Z,98920.57
2023-05-19T07:49:25.636Z,98921.44
2023-05-19T07:50:32.668Z,98919.95
2023-05-19T07:51:39.087Z,98916.08
2023-05-19T07:52:44.846Z,98920.60
2023-05-19T07:53:52.010Z,98920.92
2023-05-19T07:54:57.325Z,98919.58
2023-05-19T07:56:03.150Z,98919.84
2023-05-19T07:57:12.282Z,98922.23
2023-05-19T07:58:18.028Z,98922.41
2023-05-19T07:59:23.558Z,98924.57
2023-05-19T08:00:29.407Z,98923.56
2023-05-19T08:01:35.300Z,98924.28
2023-05-19T08:02:41.342Z,98924.14
2023-05-19T08:03:47.530Z,98923.13
2023-05-19T08:04:53.721Z,98927.30
2023-05-19T08:05:59.609Z,98922.66
2023-05-19T08:07:06.196Z,98925.08
2023-05-19T08:08:13.384Z,98926.19
2023-05-19T08:09:19.964Z,98922.17
2023-05-19T08:10:26.780Z,98922.89
2023-05-19T08:11:33.257Z,98923.92
2023-05-19T08:12:39.019Z,98926.57
2023-05-19T08:13:45.875Z,98929.35
2023-05-19T08:14:52.143Z,98931.10
2023-05-19T08:16:00.391Z,98931.04
2023-05-19T08:17:07.165Z,98936.27
2023-05-19T08:18:13.871Z,98933.82
2023-05-19T08:19:20.148Z,98936.36
2023-05-19T08:20:26.847Z,98935.52
2023-05-19T08:21:35.221Z,98932.83
2023-05-19T08:22:40.768Z,98933.39
2023-05-19T08:23:47.111Z,98933.02
2023-05-19T08:24:53.398Z,98931.92
2023-05-19T08:25:59.657Z,98931.36
2023-05-19T08:27:06.085Z,98928.84
2023-05-19T08:28:12.648Z,98930.98
2023-05-19T08:29:18.722Z,98927.98
2023-05-19T08:30:24.464Z,98926.97
2023-05-19T08:31:30.598Z,98925.39
2023-05-19T08:32:37.124Z,98925.89
2023-05-19T08:33:43.339Z,98925.16
2023-05-19T08:34:49.395Z,98923.91
2023-05-19T08:35:56.137Z,98920.82
2023-05-19T08:37:02.116Z,98923.86
2023-05-19T08:38:08.679Z,98926.09
2023-05-19T08:39:16.910Z,98923.23
2023-05-19T08:40:23.008Z,98920.38
2023-05-19T08:41:28.990Z,98919.60
2023-05-19T08:42:34.760Z,98921.37
2023-05-19T08:43:40.456Z,98921.38
2023-05-19T08:44:45.994Z,98921.86
2023-05-19T08:45:55.016Z,98919.73
2023-05-19T08:47:02.195Z,98918.56
2023-05-19T08:48:11.322Z,98919.13
2023-05-19T08:49:17.377Z,98915.82
2023-05-19T08:50:25.690Z,98913.92
2023-05-19T08:51:56.118Z,98908.45
2023-05-19T08:53:33.411Z,98907.33
2023-05-19T08:55:05.846Z,98902.06
2023-05-19T08:56:25.583Z,98905.23
2023-05-19T08:57:31.686Z,98906.19
2023-05-19T08:58:42.172Z,98905.80
2023-05-19T08:59:49.743Z,98905.63
2023-05-19T09:00:55.583Z,98908.35
2023-05-19T09:02:01.574Z,98911.71
2023-05-19T09:04:17.618Z,98913.52
2023-05-19T09:05:23.573Z,98915.62
2023-05-19T09:06:32.982Z,98913.56
2023-05-19T09:07:38.747Z,98913.16
2023-05-19T09:08:44.946Z,98908.72
2023-05-19T09:09:50.862Z,98910.20
2023-05-19T09:10:56.863Z,98908.13
2023-05-19T09:12:04.149Z,98908.38
2023-05-19T09:13:11.473Z,98908.88
2023-05-19T09:14:17.718Z,98912.85
2023-05-19T09:15:23.670Z,98908.26
2023-05-19T09:16:30.178Z,98905.40
2023-05-19T09:17:37.163Z,98903.30
2023-05-19T09:18:57.570Z,98904.01
2023-05-19T09:20:06.744Z,98907.89
2023-05-19T09:21:13.807Z,98906.79
2023-05-19T09:22:19.870Z,98906.88
2023-05-19T09:23:26.894Z,98907.66
2023-05-19T09:24:34.918Z,98907.10
2023-05-19T09:25:56.853Z,98911.17
2023-05-19T09:27:03.188Z,98910.79
2023-05-19T09:28:09.714Z,98908.89
2023-05-19T09:29:16.853Z,98909.22
2023-05-19T09:30:26.551Z,98908.36
2023-05-19T09:31:34.329Z,98906.80
2023-05-19T09:32:40.008Z,98909.17
2023-05-19T09:33:46.286Z,98909.60
2023-05-19T09:34:52.844Z,98912.07
2023-05-19T09:35:58.876Z,98910.64
2023-05-19T09:37:05.978Z,98908.04
2023-05-19T09:38:13.154Z,98912.11
2023-05-19T09:39:23.877Z,98909.71
2023-05-19T09:40:29.875Z,98909.25
2023-05-19T09:41:36.044Z,98909.36
2023-05-19T09:42:41.736Z,98907.86
2023-05-19T09:43:50.200Z,98910.60
2023-05-19T09:45:04.032Z,98908.52
2023-05-19T09:46:14.757Z,98910.76
2023-05-19T09:47:20.250Z,98912.26
2023-05-19T09:48:28.979Z,98910.76
2023-05-19T09:49:35.019Z,98907.84
2023-05-19T09:50:40.283Z,98907.91
2023-05-19T09:51:46.406Z,98906.96
2023-05-19T09:52:53.956Z,98907.29
2023-05-19T09:54:00.292Z,98904.15
2023-05-19T09:55:07.396Z,98905.27
2023-05-19T09:56:14.118Z,98904.80
2023-05-19T09:57:20.207Z,98903.45
2023-05-19T09:58:27.374Z,98905.16
2023-05-19T09:59:33.960Z,98905.77
2023-05-19T10:00:39.545Z,98903.81
2023-05-19T10:01:47.130Z,98900.64
2023-05-19T10:02:53.154Z,98899.14
2023-05-19T10:03:59.004Z,98901.38
2023-05-19T10:05:05.833Z,98903.87
2023-05-19T10:06:12.332Z,98903.26
2023-05-19T10:07:18.634Z,98902.48
2023-05-19T10:08:27.157Z,98902.30
2023-05-19T10:09:33.618Z,98903.36
2023-05-19T10:10:39.575Z,98905.52
2023-05-19T10:11:45.433Z,98905.19
2023-05-19T10:12:52.025Z,98903.30
2023-05-19T10:13:58.578Z,98901.47
2023-05-19T10:15:05.241Z,98901.95
2023-05-19T10:16:11.760Z,98900.36
2023-05-19T10:17:18.258Z,98902.34
2023-05-19T10:18:24.183Z,98902.45
2023-05-19T10:19:30.262Z,98900.62
2023-05-19T10:20:36.911Z,98899.67
2023-05-19T10:21:42.186Z,98902.28
2023-05-19T10:22:49.125Z,98900.16
2023-05-19T10:23:54.498Z,98899.61
2023-05-19T10:25:00.554Z,98900.48
2023-05-19T10:26:07.151Z,98898.74
2023-05-19T10:27:14.685Z,98898.45
2023-05-19T10:28:21.654Z,98897.27
2023-05-19T10:29:33.721Z,98895.05
2023-05-19T10:30:47.682Z,98898.41
2023-05-19T10:31:53.499Z,98896.35
2023-05-19T10:32:59.349Z,98893.20
2023-05-19T10:34:41.361Z,98888.28
2023-05-19T10:36:25.734Z,98888.17
2023-05-19T10:38:07.645Z,98885.14
2023-05-19T10:39:20.326Z,98890.45
2023-05-19T10:40:30.862Z,98890.50
2023-05-19T10:41:44.002Z,98890.84
2023-05-19T10:43:30.260Z,98895.92
2023-05-19T10:44:52.501Z,98897.83
2023-05-19T10:45:59.270Z,98901.23
2023-05-19T10:47:09.362Z,98903.95
2023-05-19T10:48:18.582Z,98909.02
2023-05-19T10:49:24.358Z,98912.69
2023-05-19T10:50:37.730Z,98914.54
2023-05-19T10:51:43.736Z,98917.26
2023-05-19T10:52:56.253Z,98921.31
2023-05-19T10:54:12.214Z,98925.61
2023-05-19T10:55:21.437Z,98926.67
2023-05-19T10:56:35.737Z,98929.70
2023-05-19T10:57:41.670Z,98930.74
2023-05-19T10:58:53.354Z,98933.88
2023-05-19T11:00:01.832Z,98938.64
2023-05-19T11:01:15.843Z,98942.95
2023-05-19T11:02:44.848Z,98946.05
2023-05-19T11:03:55.161Z,98948.27
2023-05-19T11:05:10.783Z,98950.17
2023-05-19T11:06:26.868Z,98953.11
2023-05-19T11:07:33.227Z,98958.05
2023-05-19T11:08:40.971Z,98962.73
2023-05-19T11:09:51.588Z,98965.16
2023-05-19T11:10:57.286Z,98962.93
2023-05-19T11:12:04.638Z,98964.70
2023-05-19T11:13:10.862Z,98964.44
2023-05-19T11:14:21.690Z,98962.94
2023-05-19T11:15:28.655Z,98965.17
2023-05-19T11:16:34.469Z,98966.23
2023-05-19T11:17:41.989Z,98966.23
2023-05-19T11:18:51.380Z,98969.27
2023-05-19T11:19:58.165Z,98970.70
2023-05-19T11:21:03.622Z,98973.33
2023-05-19T11:22:14.548Z,98972.36
2023-05-19T11:23:21.165Z,98970.47
2023-05-19T11:24:50.522Z,98970.80
2023-05-19T11:25:55.919Z,98973.87
2023-05-19T11:27:03.828Z,98973.73
2023-05-19T11:28:10.648Z,98973.89
2023-05-19T11:29:16.878Z,98974.77
2023-05-19T11:30:23.918Z,98977.89
2023-05-19T11:31:31.395Z,98965.91
2023-05-19T11:32:42.989Z,98955.05
2023-05-19T11:33:49.399Z,98955.85
2023-05-19T11:34:55.448Z,98961.89
2023-05-19T11:36:02.406Z,98965.49
2023-05-19T11:37:09.167Z,98966.43
2023-05-19T11:38:15.838Z,98964.46
2023-05-19T11:39:21.822Z,98963.13
2023-05-19T11:40:27.705Z,98964.98
2023-05-19T11:41:33.934Z,98966.48
2023-05-19T11:42:39.595Z,98966.20
2023-05-19T11:43:45.952Z,98968.10
2023-05-19T11:44:52.296Z,98971.36
2023-05-19T11:45:58.683Z,98970.55
2023-05-19T11:47:04.971Z,98968.41
2023-05-19T11:48:17.171Z,98971.38
2023-05-19T11:49:22.907Z,98975.13
2023-05-19T11:50:28.805Z,98970.86
2023-05-19T11:51:34.794Z,98972.39
2023-05-19T11:52:45.296Z,98973.11
2023-05-19T11:53:51.821Z,98971.35
2023-05-19T11:55:01.843Z,98968.81
2023-05-19T11:56:08.638Z,98967.09
2023-05-19T11:57:14.991Z,98965.29
2023-05-19T11:58:20.955Z,98966.70
2023-05-19T11:59:35.772Z,98965.66
2023-05-19T12:00:43.287Z,98966.66
2023-05-19T12:01:48.866Z,98967.16
2023-05-19T12:02:54.551Z,98963.92
2023-05-19T12:04:00.900Z,98964.64
2023-05-19T12:05:07.451Z,98967.42
2023-05-19T12:06:17.901Z,98966.58
2023-05-19T12:07:27.291Z,98964.69
2023-05-19T12:08:33.634Z,98966.35
2023-05-19T12:09:39.305Z,98965.35
2023-05-19T12:10:46.659Z,98966.06
2023-05-19T12:11:53.865Z,98960.66
2023-05-19T12:13:00.765Z,98959.33
2023-05-19T12:14:09.842Z,98958.20
2023-05-19T12:15:15.453Z,98956.29
2023-05-19T12:16:24.165Z,98956.45
2023-05-19T12:17:30.192Z,98954.95
2023-05-19T12:18:38.857Z,98954.73
2023-05-19T12:19:48.359Z,98952.64
2023-05-19T12:20:54.560Z,98955.02
2023-05-19T12:22:01.695Z,98959.05
2023-05-19T12:23:08.837Z,98957.98
2023-05-19T12:24:14.153Z,98959.02
2023-05-19T12:25:19.726Z,98963.83
2023-05-19T12:26:26.035Z,98963.14
2023-05-19T12:27:32.998Z,98967.30
2023-05-19T12:28:39.513Z,98973.29
2023-05-19T12:29:50.181Z,98978.48
2023-05-19T12:30:55.902Z,98977.21
2023-05-19T12:32:06.870Z,98979.83
2023-05-19T12:33:13.105Z,98983.11
2023-05-19T12:34:19.062Z,98983.17
2023-05-19T12:35:30.998Z,98983.54
2023-05-19T12:36:36.703Z,98983.06
2023-05-19T12:37:44.968Z,98981.77
2023-05-19T12:38:54.842Z,98982.48
2023-05-19T12:40:01.048Z,98986.84
2023-05-19T12:41:07.765Z,98987.14
2023-05-19T12:42:13.990Z,98988.64
2023-05-19T12:43:26.535Z,98989.23
2023-05-19T12:44:32.545Z,98994.75
2023-05-19T12:45:39.164Z,98998.95
2023-05-19T12:46:45.771Z,98999.90
2023-05-19T12:47:53.492Z,99003.06
2023-05-19T12:49:01.878Z,99002.19
2023-05-19T12:50:09.197Z,99003.44
2023-05-19T12:51:21.843Z,99005.93
2023-05-19T12:52:30.356Z,99006.55
2023-05-19T12:53:36.907Z,99012.52
2023-05-19T12:54:42.538Z,99008.83
2023-05-19T12:55:48.439Z,99008.77
2023-05-19T12:56:54.703Z,99010.77
2023-05-19T12:58:01.568Z,99013.02
2023-05-19T12:59:07.932Z,99011.36
2023-05-19T13:00:21.441Z,99012.90
2023-05-19T13:01:27.800Z,99015.85
2023-05-19T13:02:36.954Z,99018.27
2023-05-19T13:03:43.621Z,99018.83
2023-05-19T13:04:50.259Z,99026.00
2023-05-19T13:05:56.462Z,99027.84
2023-05-19T13:07:02.688Z,99025.83
2023-05-19T13:08:13.289Z,99028.23
2023-05-19T13:09:19.778Z,99031.91
2023-05-19T13:10:29.755Z,99029.88
2023-05-19T13:11:35.956Z,99032.36
2023-05-19T13:12:41.504Z,99036.52
2023-05-19T13:13:50.305Z,99040.54
2023-05-19T13:14:56.375Z,99038.89
2023-05-19T13:16:01.648Z,99041.90
2023-05-19T13:17:07.026Z,99038.71
2023-05-19T13:18:13.318Z,99041.45
2023-05-19T13:20:28.956Z,99037.58
2023-05-19T13:21:34.673Z,99041.04
2023-05-19T13:22:40.327Z,99035.62
2023-05-19T13:23:46.344Z,99035.03
2023-05-19T13:24:54.135Z,99039.05
2023-05-19T13:26:00.078Z,99038.29